createdAt,value
2022-10-06T00:01:09.694Z,100.00
2022-10-06T00:03:38.387Z,100.00
2022-10-06T00:06:05.501Z,100.00
2022-10-06T00:08:33.420Z,100.00
2022-10-06T00:11:00.070Z,100.00
2022-10-06T00:13:27.410Z,100.00
2022-10-06T00:15:54.552Z,100.00
2022-10-06T00:18:21.325Z,100.00
2022-10-06T00:20:57.689Z,100.00
2022-10-06T00:23:24.725Z,100.00
2022-10-06T00:25:51.649Z,100.00
2022-10-06T00:28:18.358Z,100.00
2022-10-06T00:30:46.431Z,100.00
2022-10-06T00:33:14.855Z,100.00
2022-10-06T00:35:42.069Z,100.00
2022-10-06T00:38:10.799Z,100.00
2022-10-06T00:40:42.673Z,100.00
2022-10-06T00:43:28.037Z,100.00
2022-10-06T00:45:54.656Z,100.00
2022-10-06T00:48:24.038Z,100.00
2022-10-06T00:50:54.473Z,100.00
2022-10-06T00:53:21.949Z,100.00
2022-10-06T00:55:48.633Z,100.00
2022-10-06T00:58:16.123Z,100.00
2022-10-06T01:00:44.276Z,100.00
2022-10-06T01:03:37.394Z,100.00
2022-10-06T01:06:05.124Z,100.00
2022-10-06T01:08:32.700Z,100.00
2022-10-06T01:10:59.396Z,100.00
2022-10-06T01:13:29.603Z,100.00
2022-10-06T01:16:00.047Z,100.00
2022-10-06T01:18:28.419Z,100.00
2022-10-06T01:21:02.374Z,100.00
2022-10-06T01:23:31.090Z,100.00
2022-10-06T01:25:58.621Z,100.00
2022-10-06T01:28:26.237Z,100.00
2022-10-06T01:30:55.740Z,100.00
2022-10-06T01:33:24.094Z,100.00
2022-10-06T01:35:52.662Z,100.00
2022-10-06T01:38:20.171Z,100.00
2022-10-06T01:40:51.185Z,100.00
2022-10-06T01:43:18.019Z,100.00
2022-10-06T01:45:44.766Z,100.00
2022-10-06T01:48:11.392Z,100.00
2022-10-06T01:50:40.435Z,100.00
2022-10-06T01:53:07.466Z,100.00
2022-10-06T01:55:34.197Z,100.00
2022-10-06T01:58:01.577Z,100.00
2022-10-06T02:00:28.520Z,100.00
2022-10-06T02:02:57.397Z,100.00
2022-10-06T02:05:26.194Z,100.00
2022-10-06T02:07:54.215Z,100.00
2022-10-06T02:10:21.320Z,100.00
2022-10-06T02:12:52.639Z,100.00
2022-10-06T02:15:21.583Z,100.00
2022-10-06T02:17:48.352Z,100.00
2022-10-06T02:20:15.728Z,100.00
2022-10-06T02:22:43.819Z,100.00
2022-10-06T02:25:12.141Z,100.00
2022-10-06T02:27:39.507Z,100.00
2022-10-06T02:30:08.077Z,100.00
2022-10-06T02:32:36.457Z,100.00
2022-10-06T02:35:03.940Z,100.00
2022-10-06T02:37:31.155Z,100.00
2022-10-06T02:40:00.116Z,100.00
2022-10-06T02:42:27.016Z,100.00
2022-10-06T02:44:54.197Z,100.00
2022-10-06T02:47:22.537Z,100.00
2022-10-06T02:49:49.079Z,100.00
2022-10-06T02:52:16.908Z,100.00
2022-10-06T02:54:43.530Z,100.00
2022-10-06T02:57:10.116Z,100.00
2022-10-06T02:59:36.719Z,100.00
2022-10-06T03:02:04.882Z,100.00
2022-10-06T03:04:31.540Z,100.00
2022-10-06T03:06:58.084Z,100.00
2022-10-06T03:09:27.800Z,100.00
2022-10-06T03:11:55.431Z,100.00
2022-10-06T03:14:30.668Z,100.00
2022-10-06T03:16:57.463Z,100.00
2022-10-06T03:19:26.846Z,100.00
2022-10-06T03:21:54.045Z,100.00
2022-10-06T03:24:24.531Z,100.00
2022-10-06T03:26:55.608Z,100.00
2022-10-06T03:29:22.271Z,100.00
2022-10-06T03:31:53.390Z,100.00
2022-10-06T03:34:20.151Z,100.00
2022-10-06T03:36:46.774Z,100.00
2022-10-06T03:39:16.105Z,100.00
2022-10-06T03:41:43.115Z,100.00
2022-10-06T03:44:10.034Z,100.00
2022-10-06T03:46:40.006Z,100.00
2022-10-06T03:49:07.840Z,100.00
2022-10-06T03:51:37.328Z,100.00
2022-10-06T03:54:04.684Z,100.00
2022-10-06T03:56:34.871Z,100.00
2022-10-06T03:59:02.714Z,100.00
2022-10-06T04:01:31.343Z,100.00
2022-10-06T04:03:58.670Z,100.00
2022-10-06T04:06:25.938Z,100.00
2022-10-06T04:08:52.850Z,100.00
2022-10-06T04:11:21.537Z,100.00
2022-10-06T04:13:49.204Z,100.00
2022-10-06T04:16:17.059Z,100.00
2022-10-06T04:18:45.174Z,100.00
2022-10-06T04:21:12.868Z,100.00
2022-10-06T04:23:40.380Z,100.00
2022-10-06T04:26:10.571Z,100.00
2022-10-06T04:28:38.260Z,100.00
2022-10-06T04:31:06.242Z,100.00
2022-10-06T04:33:34.199Z,100.00
2022-10-06T04:36:03.909Z,100.00
2022-10-06T04:38:34.192Z,100.00
2022-10-06T04:41:05.404Z,100.00
2022-10-06T04:43:34.606Z,100.00
2022-10-06T04:46:13.099Z,100.00
2022-10-06T04:48:52.808Z,100.00
2022-10-06T04:51:20.981Z,100.00
2022-10-06T04:53:48.415Z,100.00
2022-10-06T04:56:17.475Z,100.00
2022-10-06T04:58:45.713Z,100.00
2022-10-06T05:01:22.712Z,100.00
2022-10-06T05:03:50.685Z,100.00
2022-10-06T05:06:37.015Z,100.00
2022-10-06T05:09:11.176Z,100.00
2022-10-06T05:11:40.596Z,100.00
2022-10-06T05:14:10.568Z,100.00
2022-10-06T05:16:40.520Z,100.00
2022-10-06T05:19:08.323Z,100.00
2022-10-06T05:21:37.725Z,100.00
2022-10-06T05:24:05.862Z,100.00
2022-10-06T05:26:34.254Z,100.00
2022-10-06T05:29:02.880Z,100.00
2022-10-06T05:31:31.746Z,100.00
2022-10-06T05:34:00.591Z,100.00
2022-10-06T05:36:32.630Z,100.00
2022-10-06T05:39:00.411Z,100.00
2022-10-06T05:41:32.235Z,100.00
2022-10-06T05:44:02.021Z,100.00
2022-10-06T05:46:30.249Z,100.00
2022-10-06T05:48:59.125Z,100.00
2022-10-06T05:51:31.442Z,100.00
2022-10-06T05:54:00.710Z,100.00
2022-10-06T05:56:30.320Z,100.00
2022-10-06T05:58:58.122Z,100.00
2022-10-06T06:01:27.514Z,100.00
2022-10-06T06:03:59.429Z,100.00
2022-10-06T06:06:28.803Z,100.00
2022-10-06T06:09:00.249Z,100.00
2022-10-06T06:11:28.399Z,100.00
2022-10-06T06:13:57.870Z,100.00
2022-10-06T06:16:24.927Z,100.00
2022-10-06T06:18:51.990Z,100.00
2022-10-06T06:21:19.010Z,100.00
2022-10-06T06:23:46.761Z,100.00
2022-10-06T06:26:23.599Z,100.00
2022-10-06T06:28:51.784Z,100.00
2022-10-06T06:31:26.709Z,100.00
2022-10-06T06:33:56.366Z,100.00
2022-10-06T06:36:27.271Z,100.00
2022-10-06T06:38:55.243Z,100.00
2022-10-06T06:41:23.936Z,100.00
2022-10-06T06:43:56.504Z,100.00
2022-10-06T06:46:32.295Z,100.00
2022-10-06T06:49:06.314Z,100.00
2022-10-06T06:51:49.813Z,100.00
2022-10-06T06:54:18.461Z,100.00
2022-10-06T06:56:48.972Z,100.00
2022-10-06T06:59:20.425Z,100.00
2022-10-06T07:01:50.093Z,100.00
2022-10-06T07:07:12.379Z,100.00
2022-10-06T07:09:39.084Z,100.00
2022-10-06T07:12:11.591Z,100.00
2022-10-06T07:15:02.770Z,100.00
2022-10-06T07:17:50.229Z,100.00
2022-10-06T07:20:36.367Z,100.00
2022-10-06T07:23:22.635Z,100.00
2022-10-06T07:25:49.317Z,100.00
2022-10-06T07:28:17.020Z,100.00
2022-10-06T07:30:44.898Z,100.00
2022-10-06T07:33:15.476Z,100.00
2022-10-06T07:35:43.909Z,100.00
2022-10-06T07:38:11.492Z,100.00
2022-10-06T07:40:50.484Z,100.00
2022-10-06T07:43:17.744Z,100.00
2022-10-06T07:49:00.264Z,100.00
2022-10-06T07:51:27.391Z,100.00
2022-10-06T07:53:56.207Z,100.00
2022-10-06T07:56:27.996Z,100.00
2022-10-06T07:58:58.597Z,100.00
2022-10-06T08:01:27.442Z,100.00
2022-10-06T08:03:54.172Z,100.00
2022-10-06T08:06:23.602Z,100.00
2022-10-06T08:08:53.239Z,100.00
2022-10-06T08:11:21.660Z,100.00
2022-10-06T08:13:48.504Z,100.00
2022-10-06T08:16:17.763Z,100.00
2022-10-06T08:18:48.242Z,100.00
2022-10-06T08:21:16.359Z,100.00
2022-10-06T08:23:43.487Z,100.00
2022-10-06T08:26:10.884Z,100.00
2022-10-06T08:28:38.078Z,100.00
2022-10-06T08:31:11.903Z,100.00
2022-10-06T08:33:39.600Z,100.00
2022-10-06T08:36:08.736Z,100.00
2022-10-06T08:38:37.181Z,100.00
2022-10-06T08:41:16.401Z,100.00
2022-10-06T08:43:43.758Z,100.00
2022-10-06T08:46:14.598Z,100.00
2022-10-06T08:48:41.296Z,100.00
2022-10-06T08:51:24.031Z,100.00
2022-10-06T08:54:06.028Z,100.00
2022-10-06T08:56:35.917Z,100.00
2022-10-06T08:59:04.388Z,100.00
2022-10-06T09:01:38.891Z,100.00
2022-10-06T09:04:07.936Z,100.00
2022-10-06T09:06:53.072Z,100.00
2022-10-06T09:09:25.666Z,100.00
2022-10-06T09:11:58.490Z,90.02
2022-10-06T09:14:31.024Z,87.54
2022-10-06T09:17:01.989Z,88.53
2022-10-06T09:19:37.457Z,85.83
2022-10-06T09:22:05.192Z,86.38
2022-10-06T09:24:37.611Z,83.25
2022-10-06T09:27:16.787Z,81.70
2022-10-06T09:29:43.367Z,80.61
2022-10-06T09:32:11.019Z,77.64
2022-10-06T09:34:40.958Z,78.06
2022-10-06T09:37:12.880Z,79.76
2022-10-06T09:39:48.173Z,79.06
2022-10-06T09:42:19.737Z,76.08
2022-10-06T09:44:50.909Z,75.07
2022-10-06T09:47:36.489Z,73.60
2022-10-06T09:50:12.038Z,71.86
2022-10-06T09:52:39.300Z,66.94
2022-10-06T09:55:12.427Z,66.43
2022-10-06T09:57:39.604Z,66.54
2022-10-06T10:00:26.924Z,63.63
2022-10-06T10:03:07.370Z,63.81
2022-10-06T10:05:36.479Z,62.37
2022-10-06T10:08:03.142Z,63.00
2022-10-06T10:10:29.997Z,61.66
2022-10-06T10:13:00.109Z,61.98
2022-10-06T10:15:50.084Z,58.96
2022-10-06T10:18:17.099Z,57.55
2022-10-06T10:21:05.255Z,57.04
2022-10-06T10:23:32.863Z,55.24
2022-10-06T10:26:08.483Z,59.85
2022-10-06T10:28:42.792Z,56.90
2022-10-06T10:31:09.563Z,57.27
2022-10-06T10:33:49.700Z,56.08
2022-10-06T10:36:33.379Z,54.25
2022-10-06T10:39:01.449Z,52.89
2022-10-06T10:41:32.577Z,54.22
2022-10-06T10:44:10.061Z,54.43
2022-10-06T10:46:42.527Z,54.62
2022-10-06T10:49:13.647Z,54.43
2022-10-06T10:51:43.085Z,52.57
2022-10-06T10:54:21.382Z,51.62
2022-10-06T10:56:49.728Z,49.98
2022-10-06T10:59:26.179Z,48.41
2022-10-06T11:01:52.811Z,48.76
2022-10-06T11:04:20.492Z,47.38
2022-10-06T11:07:02.117Z,49.10
2022-10-06T11:09:47.186Z,48.03
2022-10-06T11:12:33.505Z,47.57
2022-10-06T11:15:03.421Z,47.24
2022-10-06T11:17:45.577Z,47.28
2022-10-06T11:20:27.760Z,46.18
2022-10-06T11:22:56.908Z,44.44
2022-10-06T11:25:36.715Z,42.35
2022-10-06T11:28:06.073Z,43.50
2022-10-06T11:30:36.936Z,43.03
2022-10-06T11:33:24.796Z,42.81
2022-10-06T11:35:51.752Z,41.73
2022-10-06T11:38:35.922Z,43.03
2022-10-06T11:41:17.496Z,38.52
2022-10-06T11:43:51.818Z,39.45
2022-10-06T11:46:35.568Z,43.27
2022-10-06T11:49:21.228Z,41.82
2022-10-06T11:51:47.765Z,40.55
2022-10-06T11:54:33.138Z,39.81
2022-10-06T11:56:59.832Z,40.38
2022-10-06T11:59:27.741Z,39.39
2022-10-06T12:02:00.559Z,38.48
2022-10-06T12:04:27.604Z,39.17
2022-10-06T12:06:55.875Z,36.02
2022-10-06T12:09:28.748Z,36.73
2022-10-06T12:11:56.486Z,37.28
2022-10-06T12:16:00.143Z,34.79
2022-10-06T12:17:23.836Z,35.54
2022-10-06T12:19:53.797Z,36.96
2022-10-06T12:22:31.019Z,38.20
2022-10-06T12:25:02.997Z,37.94
2022-10-06T12:27:48.109Z,36.54
2022-10-06T12:30:27.928Z,34.35
2022-10-06T12:32:55.954Z,34.92
2022-10-06T12:35:24.733Z,33.38
2022-10-06T12:37:54.429Z,33.38
2022-10-06T12:40:47.008Z,32.76
2022-10-06T12:43:17.432Z,31.09
2022-10-06T12:45:47.192Z,31.55
2022-10-06T12:48:37.200Z,31.92
2022-10-06T12:51:06.520Z,32.35
2022-10-06T12:53:39.491Z,31.44
2022-10-06T12:56:12.215Z,29.85
2022-10-06T12:58:39.663Z,30.22
2022-10-06T13:01:09.578Z,31.01
2022-10-06T13:03:36.996Z,32.60
2022-10-06T13:06:07.829Z,32.19
2022-10-06T13:08:38.413Z,31.93
2022-10-06T13:11:22.238Z,31.29
2022-10-06T13:13:50.150Z,30.87
2022-10-06T13:16:21.832Z,30.04
2022-10-06T13:18:49.254Z,27.85
2022-10-06T13:21:16.511Z,28.53
2022-10-06T13:23:45.505Z,27.35
2022-10-06T13:26:20.230Z,27.01
2022-10-06T13:28:48.090Z,28.60
2022-10-06T13:31:14.776Z,27.75
2022-10-06T13:33:42.389Z,26.91
2022-10-06T13:36:10.942Z,26.82
2022-10-06T13:38:38.040Z,26.64
2022-10-06T13:41:06.317Z,25.72
2022-10-06T13:43:39.714Z,26.00
2022-10-06T13:46:07.869Z,26.33
2022-10-06T13:48:34.710Z,27.45
2022-10-06T13:51:03.492Z,27.80
2022-10-06T13:53:31.297Z,27.05
2022-10-06T13:55:58.574Z,28.30
2022-10-06T13:58:27.707Z,26.76
2022-10-06T14:00:56.254Z,27.81
2022-10-06T14:03:24.505Z,27.40
2022-10-06T14:05:51.916Z,28.46
2022-10-06T14:08:26.886Z,28.23
2022-10-06T14:10:55.461Z,27.21
2022-10-06T14:13:26.539Z,27.81
2022-10-06T14:16:02.008Z,26.95
2022-10-06T14:18:42.966Z,26.96
2022-10-06T14:21:19.930Z,27.46
2022-10-06T14:23:53.083Z,26.55
2022-10-06T14:26:25.181Z,27.25
2022-10-06T14:28:53.066Z,28.86
2022-10-06T14:31:20.249Z,27.90
2022-10-06T14:33:48.025Z,27.12
2022-10-06T14:36:19.489Z,27.72
2022-10-06T14:38:47.082Z,27.11
2022-10-06T14:41:18.767Z,27.20
2022-10-06T14:43:48.556Z,28.05
2022-10-06T14:46:15.650Z,29.95
2022-10-06T14:48:43.612Z,29.21
2022-10-06T14:51:10.555Z,30.15
2022-10-06T14:53:39.435Z,30.05
2022-10-06T14:56:10.722Z,31.30
2022-10-06T14:58:38.778Z,30.88
2022-10-06T15:01:06.409Z,30.98
2022-10-06T15:03:33.584Z,31.78
2022-10-06T15:06:23.058Z,32.26
2022-10-06T15:08:51.075Z,32.76
2022-10-06T15:11:18.905Z,33.54
2022-10-06T15:13:46.204Z,34.30
2022-10-06T15:16:13.716Z,33.09
2022-10-06T15:18:42.845Z,32.71
2022-10-06T15:21:10.396Z,32.99
2022-10-06T15:23:37.652Z,33.24
2022-10-06T15:26:23.304Z,34.65
2022-10-06T15:29:03.262Z,35.87
2022-10-06T15:31:34.619Z,34.95
2022-10-06T15:34:02.374Z,37.45
2022-10-06T15:36:30.414Z,35.91
2022-10-06T15:38:58.331Z,38.10
2022-10-06T15:41:25.398Z,39.09
2022-10-06T15:43:55.920Z,37.66
2022-10-06T15:46:26.328Z,39.48
2022-10-06T15:48:53.746Z,40.55
2022-10-06T15:51:22.033Z,41.66
2022-10-06T15:53:49.442Z,42.46
2022-10-06T15:56:17.398Z,43.38
2022-10-06T15:58:45.058Z,43.80
2022-10-06T16:01:28.417Z,45.44
2022-10-06T16:03:55.330Z,47.16
2022-10-06T16:06:40.542Z,47.99
2022-10-06T16:09:08.744Z,49.65
2022-10-06T16:11:35.622Z,48.25
2022-10-06T16:14:02.370Z,50.66
2022-10-06T16:16:29.120Z,50.38
2022-10-06T16:18:55.756Z,50.29
2022-10-06T16:21:23.758Z,50.50
2022-10-06T16:23:53.950Z,50.68
2022-10-06T16:26:20.905Z,50.25
2022-10-06T16:28:55.314Z,51.06
2022-10-06T16:31:22.802Z,52.35
2022-10-06T16:33:50.629Z,53.45
2022-10-06T16:36:17.792Z,54.35
2022-10-06T16:38:44.560Z,55.26
2022-10-06T16:41:11.534Z,56.43
2022-10-06T16:43:41.923Z,58.49
2022-10-06T16:46:19.160Z,59.84
2022-10-06T16:48:46.407Z,60.93
2022-10-06T16:51:14.798Z,61.77
2022-10-06T16:53:42.986Z,62.75
2022-10-06T16:56:13.513Z,63.33
2022-10-06T16:58:44.202Z,63.42
2022-10-06T17:01:11.825Z,63.12
2022-10-06T17:03:38.937Z,63.88
2022-10-06T17:06:07.252Z,64.10
2022-10-06T17:08:34.179Z,63.20
2022-10-06T17:11:01.855Z,62.98
2022-10-06T17:13:28.627Z,61.47
2022-10-06T17:16:15.850Z,61.49
2022-10-06T17:18:43.639Z,61.33
2022-10-06T17:21:32.111Z,61.29
2022-10-06T17:24:00.456Z,60.88
2022-10-06T17:26:28.636Z,59.92
2022-10-06T17:28:57.189Z,60.66
2022-10-06T17:31:25.033Z,60.64
2022-10-06T17:33:51.667Z,60.53
2022-10-06T17:36:22.052Z,60.99
2022-10-06T17:38:53.093Z,60.49
2022-10-06T17:41:21.000Z,58.21
2022-10-06T17:43:50.633Z,57.82
2022-10-06T17:46:20.166Z,56.42
2022-10-06T17:48:51.366Z,56.92
2022-10-06T17:51:19.427Z,57.46
2022-10-06T17:53:47.368Z,57.72
2022-10-06T17:56:15.496Z,56.76
2022-10-06T17:58:42.895Z,55.96
2022-10-06T18:01:13.656Z,56.90
2022-10-06T18:03:43.876Z,56.10
2022-10-06T18:06:11.729Z,56.66
2022-10-06T18:08:39.187Z,57.21
2022-10-06T18:11:24.571Z,57.46
2022-10-06T18:13:51.158Z,57.49
2022-10-06T18:16:24.567Z,58.10
2022-10-06T18:18:51.967Z,59.23
2022-10-06T18:21:19.970Z,58.23
2022-10-06T18:23:47.322Z,59.71
2022-10-06T18:26:17.062Z,63.20
2022-10-06T18:28:47.711Z,66.28
2022-10-06T18:31:15.334Z,68.36
2022-10-06T18:36:06.687Z,69.95
2022-10-06T18:36:29.451Z,70.77
2022-10-06T18:39:00.363Z,71.59
2022-10-06T18:41:28.277Z,73.85
2022-10-06T18:43:55.451Z,77.19
2022-10-06T18:46:41.343Z,77.38
2022-10-06T18:49:15.873Z,76.97
2022-10-06T18:51:43.698Z,74.85
2022-10-06T18:54:15.353Z,75.08
2022-10-06T18:56:42.651Z,77.72
2022-10-06T18:59:12.281Z,79.50
2022-10-06T19:01:40.041Z,80.49
2022-10-06T19:04:09.884Z,82.20
2022-10-06T19:06:38.021Z,85.98
2022-10-06T19:09:06.321Z,91.94
2022-10-06T19:11:48.587Z,93.34
2022-10-06T19:14:16.566Z,99.70
2022-10-06T19:16:43.471Z,99.00
2022-10-06T19:19:12.349Z,98.48
2022-10-06T19:21:40.807Z,100.00
2022-10-06T19:24:08.796Z,100.00
2022-10-06T19:26:36.216Z,100.00
2022-10-06T19:29:04.119Z,100.00
2022-10-06T19:31:31.044Z,100.00
2022-10-06T19:34:01.713Z,100.00
2022-10-06T19:36:30.354Z,100.00
2022-10-06T19:38:58.516Z,100.00
2022-10-06T19:41:43.452Z,100.00
2022-10-06T19:44:10.025Z,100.00
2022-10-06T19:46:37.679Z,100.00
2022-10-06T19:49:05.982Z,100.00
2022-10-06T19:51:34.225Z,100.00
2022-10-06T19:54:02.654Z,100.00
2022-10-06T19:56:30.712Z,100.00
2022-10-06T19:58:58.541Z,100.00
2022-10-06T20:01:26.783Z,100.00
2022-10-06T20:03:53.748Z,100.00
2022-10-06T20:06:20.844Z,100.00
2022-10-06T20:08:47.442Z,100.00
2022-10-06T20:11:15.517Z,100.00
2022-10-06T20:13:42.855Z,100.00
2022-10-06T20:16:14.800Z,100.00
2022-10-06T20:18:42.209Z,100.00
2022-10-06T20:21:14.231Z,100.00
2022-10-06T20:23:41.015Z,100.00
2022-10-06T20:26:12.066Z,100.00
2022-10-06T20:28:38.764Z,100.00
2022-10-06T20:31:05.873Z,100.00
2022-10-06T20:33:33.349Z,100.00
2022-10-06T20:36:00.512Z,100.00
2022-10-06T20:38:47.020Z,100.00
2022-10-06T20:41:17.578Z,100.00
2022-10-06T20:43:44.337Z,100.00
2022-10-06T20:46:11.292Z,100.00
2022-10-06T20:48:38.770Z,100.00
2022-10-06T20:51:12.503Z,100.00
2022-10-06T20:53:39.543Z,100.00
2022-10-06T20:56:06.534Z,100.00
2022-10-06T20:58:33.230Z,100.00
2022-10-06T21:01:06.087Z,100.00
2022-10-06T21:03:33.675Z,100.00
2022-10-06T21:06:00.490Z,100.00
2022-10-06T21:08:27.165Z,100.00
2022-10-06T21:11:02.141Z,100.00
2022-10-06T21:13:29.855Z,100.00
2022-10-06T21:15:57.754Z,100.00
2022-10-06T21:18:28.232Z,100.00
2022-10-06T21:20:55.952Z,100.00
2022-10-06T21:23:22.627Z,100.00
2022-10-06T21:25:49.427Z,100.00
2022-10-06T21:28:16.050Z,100.00
2022-10-06T21:30:44.247Z,100.00
2022-10-06T21:33:10.840Z,100.00
2022-10-06T21:35:37.379Z,100.00
2022-10-06T21:38:04.566Z,100.00
2022-10-06T21:40:34.704Z,100.00
2022-10-06T21:43:01.278Z,100.00
2022-10-06T21:45:32.964Z,100.00
2022-10-06T21:47:59.869Z,100.00
2022-10-06T21:50:26.568Z,100.00
2022-10-06T21:52:53.157Z,100.00
2022-10-06T21:55:20.481Z,100.00
2022-10-06T21:57:47.291Z,100.00
2022-10-06T22:00:14.072Z,100.00
2022-10-06T22:02:40.890Z,100.00
2022-10-06T22:05:07.671Z,100.00
2022-10-06T22:07:34.203Z,100.00
2022-10-06T22:10:00.796Z,100.00
2022-10-06T22:12:27.426Z,100.00
2022-10-06T22:14:54.815Z,100.00
2022-10-06T22:17:21.501Z,100.00
2022-10-06T22:19:48.026Z,100.00
2022-10-06T22:22:14.652Z,100.00
2022-10-06T22:24:41.198Z,100.00
2022-10-06T22:27:07.760Z,100.00
2022-10-06T22:29:34.289Z,100.00
2022-10-06T22:32:00.930Z,100.00
2022-10-06T22:34:27.659Z,100.00
2022-10-06T22:36:54.169Z,100.00
2022-10-06T22:39:20.825Z,100.00
2022-10-06T22:41:47.404Z,100.00
2022-10-06T22:44:14.008Z,100.00
2022-10-06T22:46:40.901Z,100.00
2022-10-06T22:49:07.560Z,100.00
2022-10-06T22:51:34.556Z,100.00
2022-10-06T22:54:01.467Z,100.00
2022-10-06T22:56:29.026Z,100.00
2022-10-06T22:58:59.473Z,100.00
2022-10-06T23:01:26.648Z,100.00
2022-10-06T23:03:56.744Z,100.00
2022-10-06T23:06:23.426Z,100.00
2022-10-06T23:08:50.020Z,100.00
2022-10-06T23:11:17.965Z,100.00
2022-10-06T23:13:44.885Z,100.00
2022-10-06T23:16:15.466Z,100.00
2022-10-06T23:18:42.946Z,100.00
2022-10-06T23:21:23.003Z,100.00
2022-10-06T23:23:53.422Z,100.00
2022-10-06T23:26:20.649Z,100.00
2022-10-06T23:28:51.208Z,100.00
2022-10-06T23:31:17.889Z,100.00
2022-10-06T23:33:44.525Z,100.00
2022-10-06T23:36:12.084Z,100.00
2022-10-06T23:38:39.125Z,100.00
2022-10-06T23:41:06.549Z,100.00
2022-10-06T23:43:33.330Z,100.00
2022-10-06T23:46:00.086Z,100.00
2022-10-06T23:48:26.917Z,100.00
2022-10-06T23:50:56.939Z,100.00
2022-10-06T23:53:23.487Z,100.00
2022-10-06T23:55:50.135Z,100.00
2022-10-06T23:58:16.684Z,100.00
